createdAt,value
2018-09-28T00:04:14.084Z,11.10
2018-09-28T00:09:17.245Z,11.20
2018-09-28T00:14:20.400Z,11.00
2018-09-28T00:19:23.560Z,11.00
2018-09-28T00:24:26.693Z,11.00
2018-09-28T00:29:29.893Z,10.90
2018-09-28T00:34:33.018Z,10.90
2018-09-28T00:39:36.175Z,10.80
2018-09-28T00:44:39.352Z,10.80
2018-09-28T00:49:42.473Z,10.70
2018-09-28T00:54:45.604Z,10.70
2018-09-28T00:59:48.784Z,10.60
2018-09-28T01:04:51.916Z,10.60
2018-09-28T01:09:55.038Z,10.60
2018-09-28T01:14:58.153Z,10.50
2018-09-28T01:20:01.344Z,10.50
2018-09-28T01:25:04.472Z,10.50
2018-09-28T01:30:07.678Z,10.40
2018-09-28T01:35:10.794Z,10.30
2018-09-28T01:40:13.951Z,10.30
2018-09-28T01:45:17.197Z,10.30
2018-09-28T01:50:20.391Z,10.20
2018-09-28T01:55:23.465Z,10.20
2018-09-28T02:00:26.669Z,10.20
2018-09-28T02:05:29.824Z,10.10
2018-09-28T02:10:33.015Z,10.10
2018-09-28T02:15:36.222Z,10.00
2018-09-28T02:20:39.348Z,10.00
2018-09-28T02:25:42.499Z,9.90
2018-09-28T02:30:45.688Z,9.80
2018-09-28T02:35:48.799Z,9.70
2018-09-28T02:40:51.915Z,9.70
2018-09-28T02:45:55.086Z,9.60
2018-09-28T02:50:58.286Z,9.60
2018-09-28T02:56:01.447Z,9.60
2018-09-28T03:01:04.592Z,9.60
2018-09-28T03:06:07.756Z,9.60
2018-09-28T03:11:10.863Z,9.60
2018-09-28T03:16:13.996Z,9.60
2018-09-28T03:21:17.084Z,9.50
2018-09-28T03:26:20.219Z,9.40
2018-09-28T03:31:26.667Z,9.40
2018-09-28T03:36:29.862Z,9.40
2018-09-28T03:41:33.265Z,9.30
2018-09-28T03:46:36.484Z,9.30
2018-09-28T03:51:39.690Z,9.30
2018-09-28T03:56:44.975Z,9.30
2018-09-28T04:01:46.639Z,9.20
2018-09-28T04:06:49.739Z,9.20
2018-09-28T04:11:52.925Z,9.20
2018-09-28T04:16:56.018Z,9.10
2018-09-28T04:22:00.587Z,9.10
2018-09-28T04:27:03.670Z,9.10
2018-09-28T04:32:06.869Z,9.00
2018-09-28T04:37:09.971Z,9.00
2018-09-28T04:42:13.100Z,8.90
2018-09-28T04:47:16.245Z,8.90
2018-09-28T04:52:19.392Z,8.90
2018-09-28T04:57:22.532Z,8.90
2018-09-28T05:02:25.732Z,8.90
2018-09-28T05:07:28.858Z,8.80
2018-09-28T05:12:32.004Z,8.80
2018-09-28T05:17:35.192Z,8.80
2018-09-28T05:22:38.684Z,8.90
2018-09-28T05:27:41.869Z,8.80
2018-09-28T05:32:45.140Z,8.80
2018-09-28T05:37:48.192Z,8.80
2018-09-28T05:42:51.270Z,8.70
2018-09-28T05:47:54.427Z,8.80
2018-09-28T05:52:57.496Z,8.80
2018-09-28T05:58:18.602Z,8.80
2018-09-28T06:03:22.256Z,8.90
2018-09-28T06:08:25.421Z,9.00
2018-09-28T06:13:28.576Z,9.30
2018-09-28T06:18:31.662Z,10.10
2018-09-28T06:23:34.833Z,11.50
2018-09-28T06:28:37.946Z,13.20
2018-09-28T06:33:41.096Z,14.70
2018-09-28T06:38:44.213Z,15.80
2018-09-28T06:43:47.569Z,16.50
2018-09-28T06:48:50.723Z,16.90
2018-09-28T06:53:53.874Z,17.50
2018-09-28T06:58:56.996Z,18.10
2018-09-28T07:04:00.162Z,17.90
2018-09-28T07:09:04.497Z,18.20
2018-09-28T07:14:10.980Z,19.10
2018-09-28T07:19:14.133Z,19.80
2018-09-28T07:24:17.203Z,20.10
2018-09-28T07:29:20.605Z,19.00
2018-09-28T07:34:23.706Z,19.20
2018-09-28T07:39:26.824Z,20.10
2018-09-28T07:44:29.952Z,20.90
2018-09-28T07:49:33.099Z,21.70
2018-09-28T07:54:36.224Z,21.30
2018-09-28T07:59:39.362Z,20.90
2018-09-28T08:04:42.501Z,20.20
2018-09-28T08:09:45.618Z,19.10
2018-09-28T08:14:48.802Z,18.40
2018-09-28T08:19:51.926Z,17.90
2018-09-28T08:24:55.515Z,17.60
2018-09-28T08:29:58.645Z,17.10
2018-09-28T08:35:01.775Z,16.60
2018-09-28T08:40:04.998Z,16.10
2018-09-28T08:45:08.106Z,15.90
2018-09-28T08:50:11.255Z,15.70
2018-09-28T08:55:14.476Z,15.70
2018-09-28T09:00:17.661Z,15.70
2018-09-28T09:05:20.831Z,15.90
2018-09-28T09:10:23.940Z,15.90
2018-09-28T09:15:27.066Z,16.00
2018-09-28T09:20:30.231Z,16.20
2018-09-28T09:25:33.394Z,16.60
2018-09-28T09:30:36.559Z,17.20
2018-09-28T09:35:39.734Z,18.10
2018-09-28T09:40:42.945Z,19.80
2018-09-28T09:45:46.046Z,21.50
2018-09-28T09:50:49.233Z,22.60
2018-09-28T09:55:52.361Z,24.70
2018-09-28T10:01:07.950Z,27.30
2018-09-28T10:06:11.116Z,28.10
2018-09-28T10:11:14.314Z,28.50
2018-09-28T10:16:17.395Z,28.40
2018-09-28T10:21:21.540Z,29.20
2018-09-28T10:26:23.723Z,29.70
2018-09-28T10:31:26.896Z,30.10
2018-09-28T10:36:30.059Z,30.00
2018-09-28T10:41:33.186Z,30.30
2018-09-28T10:46:36.298Z,29.80
2018-09-28T10:51:39.511Z,28.20
2018-09-28T10:56:42.628Z,25.50
2018-09-28T11:01:45.817Z,24.00
2018-09-28T11:06:49.000Z,24.00
2018-09-28T11:11:52.093Z,24.60
2018-09-28T11:16:55.282Z,24.00
2018-09-28T11:21:58.536Z,23.40
2018-09-28T11:27:01.837Z,22.70
2018-09-28T11:32:04.932Z,22.40
2018-09-28T11:37:08.115Z,22.60
2018-09-28T11:42:11.231Z,22.40
2018-09-28T11:47:14.464Z,21.80
2018-09-28T11:52:17.567Z,21.10
2018-09-28T11:57:20.722Z,20.80
2018-09-28T12:02:23.797Z,20.40
2018-09-28T12:07:26.986Z,20.30
2018-09-28T12:12:30.110Z,19.90
2018-09-28T12:17:33.251Z,19.90
2018-09-28T12:22:36.435Z,20.20
2018-09-28T12:27:39.581Z,20.00
2018-09-28T12:32:42.651Z,19.80
2018-09-28T12:37:45.812Z,20.00
2018-09-28T12:42:48.999Z,19.90
2018-09-28T12:47:52.120Z,19.90
2018-09-28T12:52:55.315Z,19.60
2018-09-28T12:57:58.403Z,19.40
2018-09-28T13:03:01.561Z,19.50
2018-09-28T13:08:04.721Z,19.30
2018-09-28T13:13:07.881Z,19.30
2018-09-28T13:18:11.125Z,19.00
2018-09-28T13:23:14.276Z,18.70
2018-09-28T13:28:17.446Z,18.30
2018-09-28T13:33:20.585Z,17.90
2018-09-28T13:38:23.781Z,17.50
2018-09-28T13:43:26.897Z,17.20
2018-09-28T13:48:30.014Z,16.90
2018-09-28T13:53:33.141Z,16.80
2018-09-28T13:58:36.284Z,16.50
2018-09-28T14:03:39.468Z,16.30
2018-09-28T14:08:42.682Z,16.30
2018-09-28T14:13:45.777Z,16.20
2018-09-28T14:18:49.033Z,16.00
2018-09-28T14:23:52.249Z,15.90
2018-09-28T14:28:55.461Z,15.70
2018-09-28T14:33:58.537Z,15.70
2018-09-28T14:39:01.730Z,15.60
2018-09-28T14:44:04.853Z,15.50
2018-09-28T14:49:08.112Z,15.30
2018-09-28T14:54:12.122Z,15.30
2018-09-28T14:59:15.148Z,15.10
2018-09-28T15:04:18.350Z,15.10
2018-09-28T15:09:21.454Z,15.10
2018-09-28T15:14:24.748Z,15.00
2018-09-28T15:19:27.813Z,14.90
2018-09-28T15:24:30.997Z,14.90
2018-09-28T15:29:34.159Z,14.80
2018-09-28T15:34:37.279Z,14.90
2018-09-28T15:39:40.392Z,14.90
2018-09-28T15:44:43.551Z,14.80
2018-09-28T15:49:46.676Z,14.80
2018-09-28T15:54:49.883Z,14.80
2018-09-28T15:59:53.033Z,14.70
2018-09-28T16:04:56.111Z,14.70
2018-09-28T16:09:59.271Z,14.70
2018-09-28T16:15:02.436Z,14.70
2018-09-28T16:20:05.989Z,14.70
2018-09-28T16:25:09.121Z,14.60
2018-09-28T16:30:12.260Z,14.70
2018-09-28T16:35:15.417Z,14.70
2018-09-28T16:40:18.524Z,14.60
2018-09-28T16:45:21.677Z,14.60
2018-09-28T16:50:24.797Z,14.60
2018-09-28T16:55:27.915Z,14.50
2018-09-28T17:00:31.081Z,14.50
2018-09-28T17:05:34.216Z,14.50
2018-09-28T17:10:37.369Z,14.50
2018-09-28T17:15:40.475Z,14.50
2018-09-28T17:20:43.658Z,14.50
2018-09-28T17:25:46.785Z,14.50
2018-09-28T17:30:49.927Z,14.40
2018-09-28T17:35:53.112Z,14.40
2018-09-28T17:40:56.283Z,14.30
2018-09-28T17:45:59.497Z,14.30
2018-09-28T17:51:02.629Z,14.30
2018-09-28T17:56:05.773Z,14.30
2018-09-28T18:01:08.961Z,14.30
2018-09-28T18:06:12.310Z,14.20
2018-09-28T18:11:15.653Z,14.20
2018-09-28T18:16:18.806Z,14.10
2018-09-28T18:21:21.952Z,14.10
2018-09-28T18:26:25.124Z,14.10
2018-09-28T18:31:28.266Z,14.00
2018-09-28T18:36:31.429Z,14.00
2018-09-28T18:41:34.521Z,13.90
2018-09-28T18:46:37.697Z,13.80
2018-09-28T18:51:40.861Z,13.70
2018-09-28T18:56:43.990Z,13.60
2018-09-28T19:01:47.120Z,13.50
2018-09-28T19:06:50.237Z,13.30
2018-09-28T19:11:53.375Z,13.20
2018-09-28T19:16:56.560Z,13.10
2018-09-28T19:21:59.693Z,12.90
2018-09-28T19:27:02.855Z,12.80
2018-09-28T19:32:06.045Z,12.60
2018-09-28T19:37:09.157Z,12.50
2018-09-28T19:42:12.277Z,12.40
2018-09-28T19:47:15.429Z,12.20
2018-09-28T19:52:18.553Z,12.20
2018-09-28T19:57:21.708Z,12.10
2018-09-28T20:02:24.881Z,12.00
2018-09-28T20:07:28.011Z,12.10
2018-09-28T20:12:31.163Z,12.00
2018-09-28T20:17:34.328Z,12.00
2018-09-28T20:22:37.456Z,12.00
2018-09-28T20:27:40.533Z,11.90
2018-09-28T20:32:43.741Z,11.90
2018-09-28T20:37:46.906Z,11.90
2018-09-28T20:42:50.045Z,12.00
2018-09-28T20:47:53.204Z,11.90
2018-09-28T20:52:56.334Z,11.90
2018-09-28T20:57:59.453Z,11.90
2018-09-28T21:03:02.618Z,11.80
2018-09-28T21:08:05.868Z,11.80
2018-09-28T21:13:08.997Z,11.90
2018-09-28T21:18:12.149Z,11.80
2018-09-28T21:23:15.345Z,11.80
2018-09-28T21:28:18.682Z,11.80
2018-09-28T21:33:21.877Z,11.80
2018-09-28T21:38:25.066Z,11.80
2018-09-28T21:43:28.200Z,11.80
2018-09-28T21:48:31.370Z,11.80
2018-09-28T21:53:34.494Z,11.70
2018-09-28T21:58:37.655Z,11.70
2018-09-28T22:03:40.891Z,11.70
2018-09-28T22:08:44.264Z,11.60
2018-09-28T22:13:47.428Z,11.50
2018-09-28T22:18:50.583Z,11.50
2018-09-28T22:23:53.731Z,11.40
2018-09-28T22:28:56.860Z,11.30
2018-09-28T22:34:00.013Z,11.30
2018-09-28T22:39:03.567Z,11.20
2018-09-28T22:44:06.969Z,11.20
2018-09-28T22:49:10.117Z,11.10
2018-09-28T22:54:13.273Z,11.10
2018-09-28T22:59:16.412Z,11.10
2018-09-28T23:04:19.661Z,11.10
2018-09-28T23:09:22.801Z,11.00
2018-09-28T23:14:25.985Z,11.00
2018-09-28T23:19:29.147Z,11.00
2018-09-28T23:24:32.307Z,10.90
2018-09-28T23:29:35.460Z,10.90
2018-09-28T23:34:38.665Z,10.70
2018-09-28T23:39:41.753Z,10.70
2018-09-28T23:44:44.913Z,10.60
2018-09-28T23:49:48.067Z,10.50
2018-09-28T23:54:51.202Z,10.40
2018-09-28T23:59:55.091Z,10.30
